Linden, Iowa
Current Conditions -  °F | °C
As of 4:15 PM on Monday 20 Oct 2014 (Local Time) from KPRO Reporting Station
Clear Clear  
Wind Chill: 72°   Ceiling: Unl
Heat Index: 72°   Visibility: 10mi
Dew Point: 38°   Wind: 7mph
Humidity: 29%   Direction: 330°NNW
Pressure: 30.01"   Gusts: NA
Location:  41.64°N, 94.27°W
Report Text: KPRO 202115Z AUTO 33006KT 10SM CLR 22/03 A3001 RMK AO2 T02200031
Loading
Personal Weather Stations






























Interactive Weather Map
Tropical Storm Tracking
New forecast layout! Learn more

10-Day Weather Forecast

Advertisements
Track Severe Weather on mobile